Time;durP1;ratioP1;P1;durP2;ratioP2;P2;SDS_P1;SDS_P2;PMS_P1;PMS_P2;Temp;Humidity;BMP_temperature;BMP_pressure;BME280_temperature;BME280_humidity;BME280_pressure;Samples;Min_cycle;Max_cycle;Signal;HPM_P1;HPM_P2
2023/05/06 07:01:43;;;;;;;0.10;0.10;;;19.80;99.90;21.60;101546.00;;;;6278299;22;20172;-69
2023/05/06 07:04:41;;;;;;;0.10;0.10;;;18.60;99.90;23.00;101581.00;;;;6251486;22;20226;-69
2023/05/06 07:07:36;;;;;;;0.10;0.10;;;19.30;99.90;25.00;101578.00;;;;6250728;22;20597;-69
2023/05/06 07:10:30;;;;;;;1.67;0.75;;;20.00;99.90;24.40;101573.00;;;;6226110;22;20573;-70
2023/05/06 07:13:28;;;;;;;0.10;0.10;;;20.20;99.90;27.70;101549.00;;;;6101556;23;20188;-70
2023/05/06 07:16:37;;;;;;;0.10;0.10;;;22.30;99.90;21.90;101625.00;;;;6101102;23;20145;-70
2023/05/06 07:19:18;;;;;;;0.10;0.10;;;21.40;99.90;21.40;101488.00;;;;6225389;22;20157;-69
2023/05/06 07:22:07;;;;;;;0.10;0.10;;;19.00;99.90;25.50;101539.00;;;;6250787;22;20165;-70
2023/05/06 07:25:01;;;;;;;0.10;0.10;;;20.50;99.90;28.70;101473.00;;;;6228666;22;20728;-70
2023/05/06 07:28:07;;;;;;;0.10;0.10;;;23.00;99.90;28.90;101454.00;;;;6250796;22;20255;-70
2023/05/06 07:30:56;;;;;;;0.10;0.10;;;24.40;99.90;30.20;101475.00;;;;6247223;22;20654;-70
2023/05/06 07:33:51;;;;;;;0.10;0.10;;;26.00;99.90;30.60;101462.00;;;;6251641;22;20168;-70
2023/05/06 07:36:49;;;;;;;0.73;0.73;;;26.00;99.90;27.50;101511.00;;;;6235095;22;20168;-70
2023/05/06 07:39:44;;;;;;;0.10;0.10;;;25.00;99.90;29.00;101429.00;;;;6264217;22;20256;-70
2023/05/06 07:42:33;;;;;;;0.10;0.10;;;25.00;99.90;28.90;101502.00;;;;6235141;22;20179;-71
2023/05/06 07:45:25;;;;;;;0.20;0.20;;;24.40;99.90;24.40;101574.00;;;;6225670;22;20153;-71
2023/05/06 07:48:22;;;;;;;0.10;0.10;;;22.80;99.90;26.80;101540.00;;;;6076954;23;20566;-70
2023/05/06 07:51:12;;;;;;;1.13;0.28;;;22.70;99.90;28.60;101494.00;;;;6245106;22;20222;-72
2023/05/06 07:54:04;;;;;;;0.10;0.10;;;23.80;99.90;28.90;101498.00;;;;6229250;22;20617;-71
2023/05/06 07:57:01;;;;;;;0.10;0.10;;;23.90;99.90;28.10;101511.00;;;;6100422;23;20577;-70
2023/05/06 08:00:08;;;;;;;0.10;0.10;;;23.50;99.90;25.80;101591.00;;;;6100454;23;20180;-71
2023/05/06 08:03:04;;;;;;;0.10;0.10;;;22.80;99.90;24.50;101605.00;;;;6172484;23;20597;-71
2023/05/06 08:06:01;;;;;;;0.20;0.20;;;21.40;99.90;25.20;101595.00;;;;6219244;23;20162;-69
2023/05/06 08:08:38;;;;;;;0.10;0.10;;;21.30;99.90;25.70;101594.00;;;;6187282;23;20161;-70
2023/05/06 08:11:27;;;;;;;0.10;0.10;;;21.20;99.90;24.60;101625.00;;;;6246991;23;20229;-70
2023/05/06 08:14:17;;;;;;;0.75;0.52;;;21.40;99.90;24.90;101547.00;;;;6220357;23;20604;-70
2023/05/06 08:17:17;;;;;;;0.10;0.10;;;20.80;99.90;24.70;101594.00;;;;6194685;23;20617;-69
2023/05/06 08:20:10;;;;;;;0.20;0.20;;;20.70;99.90;24.70;101630.00;;;;6246917;23;20157;-70
2023/05/06 08:22:59;;;;;;;0.43;0.43;;;21.00;99.90;23.80;101635.00;;;;6220464;23;20247;-70
2023/05/06 08:25:51;;;;;;;0.15;0.15;;;20.40;99.90;23.30;101619.00;;;;6105002;23;20163;-70
2023/05/06 08:28:42;;;;;;;0.40;0.40;;;20.00;99.90;24.20;101624.00;;;;6088465;23;20159;-70
2023/05/06 08:31:30;;;;;;;0.10;0.10;;;20.00;99.90;23.50;101609.00;;;;6066456;23;20164;-69
2023/05/06 08:34:21;;;;;;;0.20;0.20;;;20.00;99.90;23.40;101614.00;;;;6066837;23;20171;-71
2023/05/06 08:37:04;;;;;;;0.20;0.20;;;20.00;99.90;22.90;101529.00;;;;6001103;23;20653;-70
2023/05/06 08:39:56;;;;;;;0.60;0.60;;;19.70;99.90;22.50;101552.00;;;;6122765;23;20168;-70
2023/05/06 08:42:34;;;;;;;0.60;0.55;;;19.50;99.90;21.60;101541.00;;;;6066315;23;20240;-69
2023/05/06 08:45:23;;;;;;;0.20;0.20;;;19.10;99.90;23.20;101526.00;;;;6097315;23;20160;-71
2023/05/06 08:48:13;;;;;;;0.45;0.45;;;19.20;99.90;23.50;101510.00;;;;6042207;23;20248;-71
2023/05/06 08:51:04;;;;;;;0.10;0.10;;;19.60;99.90;23.50;101523.00;;;;5906911;24;20259;-69
2023/05/06 08:53:54;;;;;;;0.10;0.10;;;19.70;99.90;23.80;101525.00;;;;6072001;23;20632;-71
2023/05/06 08:56:35;;;;;;;0.20;0.20;;;20.00;99.90;24.10;101534.00;;;;6240238;23;20253;-70
2023/05/06 08:59:25;;;;;;;0.10;0.10;;;20.30;99.90;24.40;101534.00;;;;6222382;22;20158;-70
2023/05/06 09:02:21;;;;;;;0.40;0.40;;;20.60;99.90;25.70;101558.00;;;;6250232;22;20153;-72
2023/05/06 09:05:21;;;;;;;0.10;0.10;;;21.30;99.90;25.90;101558.00;;;;6240569;22;20179;-71
2023/05/06 09:08:10;;;;;;;0.10;0.10;;;21.90;99.90;26.90;101546.00;;;;6183304;23;20163;-71
2023/05/06 09:10:50;;;;;;;3.72;0.75;;;22.50;99.90;27.50;101561.00;;;;6158591;23;20166;-70
2023/05/06 09:14:09;;;;;;;0.30;0.30;;;23.00;99.90;27.50;101557.00;;;;6158950;23;20229;-70
2023/05/06 09:17:22;;;;;;;3.33;3.13;;;23.20;99.90;27.10;101559.00;;;;6182658;23;20158;-70
2023/05/06 09:19:59;;;;;;;0.22;0.22;;;23.30;99.90;26.70;101561.00;;;;6134712;23;20158;-70
2023/05/06 09:22:53;;;;;;;0.10;0.10;;;23.30;99.90;27.30;101562.00;;;;6133756;23;20162;-69
2023/05/06 09:25:44;;;;;;;1.50;1.40;;;23.20;99.90;27.30;101525.00;;;;6178129;22;20160;-69
2023/05/06 09:28:34;;;;;;;0.10;0.10;;;23.00;99.90;27.10;101513.00;;;;6182109;22;20235;-69
2023/05/06 09:31:29;;;;;;;0.55;0.55;;;23.40;99.90;26.00;101576.00;;;;6158424;23;20190;-69
2023/05/06 09:34:19;;;;;;;1.00;0.90;;;23.50;99.90;25.90;101578.00;;;;6249775;22;20518;-69
2023/05/06 09:36:48;;;;;;;0.55;0.30;;;22.40;99.90;27.10;101503.00;;;;6276624;22;20483;-69
2023/05/06 09:39:36;;;;;;;0.70;0.70;;;22.90;99.90;26.90;101558.00;;;;6224517;22;20161;-69
2023/05/06 09:42:45;;;;;;;0.10;0.10;;;23.00;99.90;26.90;101552.00;;;;6223703;22;20240;-69
2023/05/06 09:45:18;;;;;;;0.10;0.10;;;23.00;99.90;28.10;101473.00;;;;6223245;22;20189;-69
2023/05/06 09:48:12;;;;;;;0.10;0.10;;;23.70;99.90;28.70;101467.00;;;;6224429;22;20184;-69
2023/05/06 09:51:06;;;;;;;1.13;0.70;;;24.20;99.90;28.20;101519.00;;;;6205363;22;20168;-70
2023/05/06 09:54:13;;;;;;;0.22;0.13;;;24.20;99.90;27.90;101518.00;;;;6133669;23;20193;-69
2023/05/06 09:57:21;;;;;;;0.30;0.30;;;23.80;99.90;26.70;101534.00;;;;6246835;22;20383;-70
2023/05/06 10:00:15;;;;;;;0.10;0.10;;;23.40;99.90;28.20;101512.00;;;;6249509;22;20193;-69
2023/05/06 10:03:04;;;;;;;0.10;0.10;;;23.40;99.90;29.70;101495.00;;;;6133008;23;20229;-70
2023/05/06 10:05:52;;;;;;;0.20;0.20;;;24.70;99.90;27.00;101515.00;;;;6158164;23;20635;-69
2023/05/06 10:08:44;;;;;;;0.10;0.10;;;24.40;99.90;26.60;101526.00;;;;6133184;23;20321;-69
2023/05/06 10:11:27;;;;;;;0.55;0.55;;;23.20;99.90;27.50;101520.00;;;;6094429;23;20228;-69
2023/05/06 10:14:16;;;;;;;0.90;0.90;;;23.30;99.90;26.90;101530.00;;;;6157325;23;20191;-69
2023/05/06 10:17:18;;;;;;;0.10;0.10;;;23.40;99.90;29.30;101499.00;;;;6157565;23;20159;-69
2023/05/06 10:20:08;;;;;;;0.20;0.20;;;24.00;99.90;27.50;101524.00;;;;6199092;22;20167;-69
2023/05/06 10:33:38;;;;;;;1.20;1.13;;;22.60;99.90;26.30;101528.00;;;;5110381;27;20582;-70
2023/05/06 10:36:27;;;;;;;0.10;0.10;;;23.10;99.90;28.00;101499.00;;;;5089217;28;20238;-70
2023/05/06 10:39:31;;;;;;;5.63;0.65;;;23.40;99.90;27.90;101507.00;;;;5087248;28;20181;-70
2023/05/06 10:42:08;;;;;;;0.17;0.17;;;23.70;99.90;27.10;101446.00;;;;5088508;28;20223;-70
2023/05/06 10:45:07;;;;;;;0.20;0.20;;;23.70;99.90;27.30;101514.00;;;;5089093;28;20173;-70
2023/05/06 10:47:57;;;;;;;0.10;0.10;;;23.60;99.90;26.30;101523.00;;;;5089180;28;20176;-70
2023/05/06 10:50:39;;;;;;;0.25;0.25;;;23.20;99.90;25.70;101532.00;;;;5090885;28;20212;-70
2023/05/06 10:54:01;;;;;;;0.20;0.20;;;22.70;99.90;26.40;101514.00;;;;5085612;28;20597;-70
2023/05/06 10:56:57;;;;;;;0.10;0.10;;;23.10;99.90;26.50;101515.00;;;;5027621;28;20246;-70
2023/05/06 10:59:49;;;;;;;0.65;0.65;;;23.00;99.90;26.50;101519.00;;;;5080915;28;20201;-70
2023/05/06 11:02:42;;;;;;;0.70;0.55;;;23.20;99.90;26.70;101510.00;;;;5092600;28;20287;-70
2023/05/06 11:05:20;;;;;;;0.15;0.15;;;23.60;99.90;27.40;101479.00;;;;5104940;28;20213;-70
2023/05/06 11:08:13;;;;;;;0.10;0.10;;;23.70;99.90;28.00;101389.00;;;;5087191;28;20235;-70
2023/05/06 11:10:47;;;;;;;0.10;0.10;;;23.80;99.90;27.10;101423.00;;;;5085379;28;20186;-70
2023/05/06 11:13:31;;;;;;;0.10;0.10;;;24.10;99.90;25.40;101526.00;;;;5085215;28;20242;-70
2023/05/06 11:16:52;;;;;;;0.10;0.10;;;22.80;99.90;25.60;101524.00;;;;5095197;28;20193;-70
2023/05/06 11:19:45;;;;;;;0.10;0.10;;;22.20;99.90;26.40;101500.00;;;;5088671;28;20181;-71
2023/05/06 11:22:39;;;;;;;0.35;0.20;;;22.80;99.90;27.70;101437.00;;;;5079915;28;20204;-70
2023/05/06 11:25:55;;;;;;;0.45;0.30;;;23.20;99.90;26.90;101491.00;;;;5086586;28;20181;-70
2023/05/06 11:28:30;;;;;;;0.55;0.25;;;23.20;99.90;25.90;101455.00;;;;5026801;28;20595;-70
2023/05/06 11:31:39;;;;;;;0.10;0.10;;;23.00;99.90;27.60;101470.00;;;;5010980;28;20209;-70
2023/05/06 11:34:27;;;;;;;0.20;0.20;;;23.50;99.90;26.30;101503.00;;;;5066854;28;20189;-70
2023/05/06 11:37:10;;;;;;;0.10;0.10;;;23.50;99.90;26.30;101509.00;;;;5076092;28;20186;-70
2023/05/06 11:40:13;;;;;;;0.20;0.20;;;22.80;99.90;27.50;101489.00;;;;5084260;28;20216;-70
2023/05/06 11:43:29;;;;;;;0.35;0.35;;;23.30;99.90;28.30;101454.00;;;;5099810;28;20181;-70
2023/05/06 11:46:19;;;;;;;0.10;0.10;;;24.00;99.90;29.00;101422.00;;;;5082149;28;20657;-70
2023/05/06 11:49:28;;;;;;;0.20;0.20;;;25.10;99.90;26.70;101460.00;;;;5013803;28;20633;-69
2023/05/06 11:52:01;;;;;;;0.30;0.30;;;24.00;99.90;27.70;101469.00;;;;5073255;28;20324;-70
2023/05/06 11:54:30;;;;;;;0.10;0.10;;;24.10;99.90;26.30;101480.00;;;;5072815;28;20293;-69
2023/05/06 11:57:22;;;;;;;0.10;0.10;;;23.50;99.90;28.10;101464.00;;;;5075422;28;20552;-70
2023/05/06 12:00:17;;;;;;;0.47;0.40;;;23.50;99.90;27.80;101463.00;;;;5051470;28;20614;-69
2023/05/06 12:03:24;;;;;;;0.10;0.10;;;23.90;99.90;26.50;101483.00;;;;5084007;28;20206;-69
2023/05/06 12:06:31;;;;;;;0.20;0.20;;;23.50;99.90;25.40;101440.00;;;;5071051;28;20201;-69
2023/05/06 12:09:21;;;;;;;0.10;0.10;;;23.30;99.90;26.30;101513.00;;;;5088192;28;20184;-69
2023/05/06 12:12:10;;;;;;;0.10;0.10;;;22.90;99.90;25.20;101468.00;;;;5073563;28;20209;-69
2023/05/06 12:14:58;;;;;;;0.10;0.10;;;22.70;99.90;26.70;101496.00;;;;5070204;28;20204;-69
2023/05/06 12:17:47;;;;;;;0.30;0.30;;;22.60;99.90;25.30;101513.00;;;;5073601;28;20558;-69
2023/05/06 12:20:35;;;;;;;0.10;0.10;;;22.60;99.90;25.70;101521.00;;;;5065697;28;20286;-69
2023/05/06 12:23:33;;;;;;;0.10;0.10;;;22.60;99.90;27.30;101507.00;;;;5077357;28;20196;-69
2023/05/06 12:26:26;;;;;;;0.10;0.10;;;22.80;99.90;27.70;101486.00;;;;5067504;28;20201;-69
2023/05/06 12:29:24;;;;;;;0.45;0.45;;;23.50;99.90;26.10;101515.00;;;;5073707;28;20192;-69
2023/05/06 12:32:15;;;;;;;0.10;0.10;;;23.30;99.90;27.40;101495.00;;;;5012469;28;20643;-69
2023/05/06 12:35:08;;;;;;;0.10;0.10;;;23.40;99.90;26.30;101512.00;;;;4993750;28;20235;-69
2023/05/06 12:38:08;;;;;;;0.10;0.10;;;23.20;99.90;25.90;101511.00;;;;4980102;28;20238;-69
2023/05/06 12:40:56;;;;;;;1.75;0.75;;;22.80;99.90;26.00;101519.00;;;;5010541;28;20239;-69
2023/05/06 12:44:26;;;;;;;0.10;0.10;;;22.70;99.90;27.60;101490.00;;;;4978884;28;20184;-69
2023/05/06 12:47:13;;;;;;;0.10;0.10;;;23.30;99.90;26.00;101494.00;;;;5012336;28;20199;-69
2023/05/06 12:50:34;;;;;;;0.10;0.10;;;23.00;99.90;26.50;101494.00;;;;4998743;28;20218;-69
2023/05/06 12:53:29;;;;;;;0.10;0.10;;;22.90;99.90;25.90;101507.00;;;;5012009;28;20212;-69
2023/05/06 12:56:35;;;;;;;0.15;0.15;;;22.80;99.90;26.40;101496.00;;;;5071517;28;20178;-69
2023/05/06 12:59:23;;;;;;;0.47;0.47;;;22.70;99.90;26.40;101494.00;;;;5071409;28;20281;-69
2023/05/06 13:02:01;;;;;;;0.30;0.20;;;23.20;99.90;26.20;101499.00;;;;5086800;28;20292;-70
2023/05/06 13:04:39;;;;;;;0.13;0.13;;;23.10;99.90;26.40;101492.00;;;;5070182;28;20182;-70
2023/05/06 13:07:18;;;;;;;0.10;0.10;;;22.90;99.90;27.10;101493.00;;;;5073296;28;20193;-68
2023/05/06 13:10:08;;;;;;;0.10;0.10;;;23.00;99.90;28.20;101477.00;;;;5060868;28;20227;-70
2023/05/06 13:13:00;;;;;;;0.10;0.10;;;23.60;99.90;26.30;101486.00;;;;5073083;28;20255;-70
2023/05/06 13:15:49;;;;;;;0.10;0.10;;;23.70;99.90;26.70;101494.00;;;;4990921;28;20199;-70
2023/05/06 13:18:55;;;;;;;0.10;0.10;;;23.20;99.90;26.50;101504.00;;;;5082024;28;20177;-69
2023/05/06 13:21:50;;;;;;;0.10;0.10;;;23.10;99.90;25.20;101512.00;;;;5070818;28;20200;-70
2023/05/06 13:24:28;;;;;;;0.13;0.13;;;22.70;99.90;24.90;101524.00;;;;5062111;28;20188;-69
2023/05/06 13:27:16;;;;;;;0.10;0.10;;;22.00;99.90;25.50;101527.00;;;;5072623;28;20647;-69
2023/05/06 13:30:12;;;;;;;0.10;0.10;;;22.20;99.90;26.00;101519.00;;;;5066291;28;20185;-69
2023/05/06 13:33:07;;;;;;;0.32;0.32;;;22.10;99.90;24.70;101537.00;;;;5087069;28;20236;-69
2023/05/06 13:35:56;;;;;;;0.10;0.10;;;21.70;99.90;25.40;101521.00;;;;5085781;28;20185;-69
2023/05/06 13:38:45;;;;;;;0.10;0.10;;;21.70;99.90;25.70;101517.00;;;;5088103;28;20184;-69
2023/05/06 13:41:25;;;;;;;0.20;0.20;;;21.90;99.90;26.20;101507.00;;;;5073088;28;20190;-69
2023/05/06 13:44:15;;;;;;;0.15;0.15;;;22.20;99.90;23.90;101529.00;;;;5044297;28;20178;-69
2023/05/06 13:46:52;;;;;;;0.77;0.70;;;21.30;99.90;24.30;101526.00;;;;5019833;28;20217;-70
2023/05/06 13:49:25;;;;;;;0.57;0.32;;;21.10;99.90;24.10;101541.00;;;;5068526;28;20205;-69
2023/05/06 13:52:14;;;;;;;0.20;0.20;;;21.00;99.90;23.70;101562.00;;;;5072062;28;20201;-69
2023/05/06 13:54:48;;;;;;;0.10;0.10;;;20.80;99.90;24.50;101556.00;;;;5069193;28;20178;-69
2023/05/06 13:57:39;;;;;;;0.73;0.73;;;20.80;99.90;24.50;101540.00;;;;5068258;28;20190;-69
2023/05/06 14:00:29;;;;;;;0.47;0.47;;;21.00;99.90;25.40;101527.00;;;;5067682;28;20236;-69
2023/05/06 14:03:08;;;;;;;0.10;0.10;;;21.30;99.90;24.10;101554.00;;;;5053981;28;20754;-69
2023/05/06 14:06:00;;;;;;;0.10;0.10;;;21.10;99.90;25.00;101540.00;;;;5071891;28;20260;-69
2023/05/06 14:08:55;;;;;;;0.52;0.52;;;21.00;99.90;24.00;101550.00;;;;5057022;28;20220;-69
2023/05/06 14:11:38;;;;;;;0.10;0.10;;;21.10;99.90;25.30;101532.00;;;;5058275;28;20217;-69
2023/05/06 14:14:33;;;;;;;0.10;0.10;;;21.20;99.90;26.30;101490.00;;;;5066915;28;20220;-69
2023/05/06 14:17:23;;;;;;;0.10;0.10;;;21.60;99.90;25.30;101515.00;;;;5086330;28;20190;-69
2023/05/06 14:20:23;;;;;;;0.10;0.10;;;21.70;99.90;24.00;101472.00;;;;5073167;28;20632;-69
2023/05/06 14:23:41;;;;;;;0.77;0.65;;;21.10;99.90;24.50;101526.00;;;;5066955;28;20185;-69
2023/05/06 14:26:28;;;;;;;0.10;0.10;;;20.90;99.90;26.20;101501.00;;;;5073126;28;20613;-69
2023/05/06 14:29:21;;;;;;;0.10;0.10;;;21.70;99.90;26.40;101437.00;;;;5088456;28;20659;-69
2023/05/06 14:32:16;;;;;;;0.10;0.10;;;22.00;99.90;26.70;101430.00;;;;5030398;28;20265;-70
2023/05/06 14:35:06;;;;;;;0.10;0.10;;;22.40;99.90;26.90;101476.00;;;;5000532;28;20195;-70
2023/05/06 14:37:53;;;;;;;0.10;0.10;;;22.70;99.90;24.90;101507.00;;;;5067991;28;20190;-69
2023/05/06 14:40:41;;;;;;;0.10;0.10;;;21.90;99.90;25.60;101492.00;;;;5088147;28;20201;-69
2023/05/06 14:43:27;;;;;;;0.10;0.10;;;21.80;99.90;26.00;101488.00;;;;5071479;28;20182;-69
2023/05/06 14:46:16;;;;;;;0.10;0.10;;;21.90;99.90;25.40;101483.00;;;;5043220;28;20198;-69
2023/05/06 14:49:03;;;;;;;0.25;0.25;;;21.90;99.90;25.00;101506.00;;;;5050151;28;20710;-70
2023/05/06 14:51:52;;;;;;;0.20;0.20;;;21.80;99.90;24.10;101533.00;;;;5069933;28;20193;-69
2023/05/06 14:54:33;;;;;;;0.17;0.17;;;20.90;99.90;24.50;101530.00;;;;5088541;28;20239;-70
2023/05/06 14:57:08;;;;;;;0.10;0.10;;;20.70;99.90;23.80;101542.00;;;;5070066;28;20227;-69
2023/05/06 14:59:57;;;;;;;0.10;0.10;;;20.80;99.90;25.10;101514.00;;;;5088371;28;20193;-70
2023/05/06 15:02:44;;;;;;;0.10;0.10;;;20.90;99.90;24.50;101513.00;;;;5071420;28;20193;-69
2023/05/06 15:05:35;;;;;;;0.20;0.20;;;20.90;99.90;25.30;101465.00;;;;5066213;28;20261;-69
2023/05/06 15:08:28;;;;;;;0.10;0.10;;;21.30;99.90;25.60;101487.00;;;;5063130;28;20530;-69
2023/05/06 15:11:31;;;;;;;0.10;0.10;;;21.50;99.90;26.60;101473.00;;;;5070634;28;20610;-69
2023/05/06 15:14:14;;;;;;;0.10;0.10;;;21.80;99.90;26.10;101431.00;;;;5069260;28;20227;-69
2023/05/06 15:17:10;;;;;;;0.10;0.10;;;21.80;99.90;24.20;101423.00;;;;5071485;28;20189;-69
2023/05/06 15:20:00;;;;;;;0.10;0.10;;;21.60;99.90;25.70;101468.00;;;;5080703;28;20220;-69
2023/05/06 15:22:49;;;;;;;0.10;0.10;;;21.60;99.90;25.90;101463.00;;;;5074977;28;20235;-69
2023/05/06 15:25:38;;;;;;;0.93;0.63;;;21.40;99.90;24.50;101496.00;;;;5074902;28;20288;-69
2023/05/06 15:28:18;;;;;;;0.75;0.75;;;21.20;99.90;24.60;101483.00;;;;5077949;28;20218;-69
2023/05/06 15:31:01;;;;;;;0.10;0.10;;;21.00;99.90;24.10;101435.00;;;;5073859;28;20185;-69
2023/05/06 15:33:42;;;;;;;0.10;0.10;;;21.00;99.90;25.70;101473.00;;;;5074543;28;20308;-69
2023/05/06 15:37:00;;;;;;;0.10;0.10;;;21.20;99.90;24.20;101501.00;;;;5074160;28;20308;-69
2023/05/06 15:39:49;;;;;;;0.10;0.10;;;21.00;99.90;24.80;101490.00;;;;5074719;28;20217;-69
2023/05/06 15:42:58;;;;;;;0.10;0.10;;;20.80;99.90;24.70;101523.00;;;;5074951;28;20185;-69
2023/05/06 15:45:47;;;;;;;0.10;0.10;;;20.50;99.90;24.40;101521.00;;;;5065176;28;20540;-69
2023/05/06 15:48:39;;;;;;;0.10;0.10;;;20.70;99.90;24.20;101533.00;;;;5078067;28;20198;-69
2023/05/06 15:51:26;;;;;;;0.10;0.10;;;20.70;99.90;24.20;101519.00;;;;5017068;28;20245;-69
2023/05/06 15:54:00;;;;;;;0.10;0.10;;;20.60;99.90;23.50;101479.00;;;;5073421;28;20209;-69
2023/05/06 15:56:56;;;;;;;1.55;0.93;;;20.20;99.90;24.10;101544.00;;;;5083230;28;20234;-69
2023/05/06 15:59:45;;;;;;;0.77;0.65;;;20.20;99.90;23.30;101543.00;;;;5079021;28;20201;-69
2023/05/06 16:02:38;;;;;;;0.13;0.13;;;20.10;99.90;23.20;101550.00;;;;5086386;28;20189;-70
2023/05/06 16:05:12;;;;;;;0.10;0.10;;;20.00;99.90;23.30;101537.00;;;;5073600;28;20302;-68
2023/05/06 16:08:04;;;;;;;0.10;0.10;;;20.00;99.90;24.90;101529.00;;;;5068183;28;20201;-68
2023/05/06 16:10:47;;;;;;;0.28;0.28;;;20.30;99.90;24.40;101529.00;;;;5068475;28;20209;-68
2023/05/06 16:13:27;;;;;;;0.10;0.10;;;20.60;99.90;25.40;101455.00;;;;5069223;28;20422;-69
2023/05/06 16:16:22;;;;;;;0.10;0.10;;;20.80;99.90;25.40;101498.00;;;;5063109;28;20195;-68
2023/05/06 16:19:16;;;;;;;0.10;0.10;;;21.00;99.90;25.50;101512.00;;;;5083817;28;20267;-68
2023/05/06 16:22:09;;;;;;;0.10;0.10;;;21.10;99.90;26.60;101478.00;;;;5075595;28;20271;-68
2023/05/06 16:24:50;;;;;;;0.10;0.10;;;21.60;99.90;26.60;101446.00;;;;5073857;28;20666;-68
2023/05/06 16:27:29;;;;;;;0.25;0.25;;;22.00;99.90;23.80;101481.00;;;;5073675;28;20717;-68
2023/05/06 16:30:19;;;;;;;1.70;1.65;;;21.10;99.90;25.30;101494.00;;;;5073853;28;20189;-68
2023/05/06 16:33:12;;;;;;;0.10;0.10;;;20.90;99.90;25.30;101440.00;;;;5009127;28;20231;-68
2023/05/06 16:36:01;;;;;;;0.10;0.10;;;21.00;99.90;24.50;101528.00;;;;4980509;28;20278;-68
2023/05/06 16:38:50;;;;;;;0.10;0.10;;;21.10;99.90;24.70;101482.00;;;;4996458;28;20199;-69
2023/05/06 16:41:25;;;;;;;0.10;0.10;;;20.80;99.90;24.60;101435.00;;;;4974282;28;20200;-69
2023/05/06 16:44:14;;;;;;;0.30;0.30;;;21.00;99.90;24.80;101452.00;;;;5036610;28;20207;-69
2023/05/06 16:47:00;;;;;;;0.13;0.13;;;21.40;99.90;24.80;101463.00;;;;5012513;28;20196;-70
2023/05/06 16:49:26;;;;;;;0.10;0.10;;;21.30;99.90;24.20;101405.00;;;;5061217;28;20189;-69
2023/05/06 16:52:16;;;;;;;0.10;0.10;;;21.10;99.90;25.00;101440.00;;;;5070961;28;20272;-69
2023/05/06 16:54:57;;;;;;;0.10;0.10;;;20.90;99.90;24.70;101451.00;;;;5054059;28;20208;-70
2023/05/06 16:58:03;;;;;;;0.52;0.52;;;21.20;99.90;25.60;101442.00;;;;5080413;28;20181;-69
2023/05/06 17:00:53;;;;;;;0.10;0.10;;;21.10;99.90;25.50;101474.00;;;;5085760;28;20664;-69
2023/05/06 17:03:27;;;;;;;0.20;0.20;;;21.50;99.90;24.40;101478.00;;;;5087745;28;20190;-69
2023/05/06 17:06:28;;;;;;;0.10;0.10;;;21.10;99.90;25.00;101463.00;;;;5073566;28;20279;-69
2023/05/06 17:09:17;;;;;;;0.10;0.10;;;21.10;99.90;25.60;101463.00;;;;5071106;28;20219;-69
2023/05/06 17:11:52;;;;;;;0.32;0.32;;;21.20;99.90;24.50;101479.00;;;;5064164;28;20730;-70
2023/05/06 17:14:43;;;;;;;0.55;0.55;;;21.10;99.90;24.20;101471.00;;;;5073089;28;20639;-69
2023/05/06 17:17:27;;;;;;;0.10;0.10;;;20.70;99.90;23.60;101438.00;;;;5049165;28;20173;-69
2023/05/06 17:20:08;;;;;;;0.10;0.10;;;20.30;99.90;23.70;101350.00;;;;5073887;28;20169;-69
2023/05/06 17:23:00;;;;;;;0.10;0.10;;;20.20;99.90;23.70;101407.00;;;;5069268;28;20221;-69
2023/05/06 17:25:37;;;;;;;0.10;0.10;;;20.20;99.90;24.30;101410.00;;;;5066043;28;20658;-69
2023/05/06 17:28:32;;;;;;;0.40;0.40;;;20.30;99.90;24.50;101398.00;;;;5072486;28;20177;-69
2023/05/06 17:31:06;;;;;;;0.13;0.13;;;20.40;99.90;25.40;101443.00;;;;5075200;28;20189;-70
2023/05/06 17:33:37;;;;;;;0.10;0.10;;;20.80;99.90;25.50;101438.00;;;;5072312;28;20189;-70
2023/05/06 17:36:18;;;;;;;0.10;0.10;;;20.90;99.90;24.90;101464.00;;;;5073718;28;20403;-69
2023/05/06 17:39:13;;;;;;;0.10;0.10;;;21.10;99.90;24.70;101462.00;;;;5072611;28;20181;-69
2023/05/06 17:41:52;;;;;;;0.10;0.10;;;20.90;99.90;25.00;101400.00;;;;5069075;28;20197;-70
2023/05/06 17:44:21;;;;;;;0.10;0.10;;;20.90;99.90;25.40;101452.00;;;;5072276;28;20193;-70
2023/05/06 17:46:59;;;;;;;0.30;0.30;;;21.10;99.90;24.80;101443.00;;;;5068911;28;20183;-70
2023/05/06 17:49:28;;;;;;;1.10;0.93;;;21.00;99.90;25.00;101454.00;;;;5062285;28;20252;-70
2023/05/06 17:52:17;;;;;;;0.10;0.10;;;21.10;99.90;25.40;101460.00;;;;5072747;28;20205;-69
2023/05/06 17:55:24;;;;;;;2.10;0.95;;;21.10;99.90;25.60;101444.00;;;;5076075;28;20190;-70
2023/05/06 17:58:13;;;;;;;0.22;0.22;;;21.20;99.90;25.50;101446.00;;;;5071935;28;20262;-70
2023/05/06 18:01:03;;;;;;;1.02;0.85;;;21.20;99.90;25.30;101467.00;;;;5051016;28;20189;-70
2023/05/06 18:03:52;;;;;;;0.10;0.10;;;21.10;99.90;25.00;101468.00;;;;5074686;28;20212;-70
2023/05/06 18:06:39;;;;;;;0.10;0.10;;;21.00;99.90;25.50;101408.00;;;;5054128;28;20196;-69
2023/05/06 18:09:25;;;;;;;0.20;0.20;;;21.20;99.90;24.30;101410.00;;;;5069123;28;20183;-70
2023/05/06 18:12:11;;;;;;;0.10;0.10;;;20.60;99.90;24.70;101455.00;;;;5060124;28;20205;-70
2023/05/06 18:15:15;;;;;;;0.10;0.10;;;20.60;99.90;24.30;101460.00;;;;5072998;28;20182;-70
2023/05/06 18:18:04;;;;;;;0.10;0.10;;;20.40;99.90;24.80;101448.00;;;;5085234;28;20246;-70
2023/05/06 18:21:13;;;;;;;0.10;0.10;;;20.60;99.90;24.50;101450.00;;;;5008104;28;20207;-70
2023/05/06 18:24:08;;;;;;;0.10;0.10;;;20.40;99.90;25.10;101405.00;;;;4994572;28;20205;-70
2023/05/06 18:26:57;;;;;;;0.10;0.10;;;20.60;99.90;24.30;101458.00;;;;5063346;28;20204;-70
2023/05/06 18:29:52;;;;;;;0.10;0.10;;;20.50;99.90;23.80;101456.00;;;;5064718;28;20193;-70
2023/05/06 18:32:46;;;;;;;0.20;0.20;;;20.20;99.90;24.40;101388.00;;;;5081793;28;20755;-70
2023/05/06 18:35:35;;;;;;;0.17;0.17;;;20.30;99.90;24.60;101446.00;;;;5030924;28;20274;-70
2023/05/06 18:38:30;;;;;;;0.10;0.10;;;20.30;99.90;24.40;101465.00;;;;5066469;28;20288;-70
2023/05/06 18:41:36;;;;;;;0.10;0.10;;;20.40;99.90;24.30;101447.00;;;;5068240;28;20562;-70
2023/05/06 18:44:25;;;;;;;0.20;0.20;;;20.20;99.90;24.30;101440.00;;;;5062958;28;20200;-70
2023/05/06 18:47:00;;;;;;;0.10;0.10;;;20.20;99.90;24.10;101445.00;;;;5007889;28;20316;-70
2023/05/06 18:49:59;;;;;;;0.10;0.10;;;20.20;99.90;24.00;101411.00;;;;5058873;28;20192;-70
2023/05/06 18:52:46;;;;;;;0.20;0.20;;;19.90;99.90;24.70;101446.00;;;;5063996;28;20229;-70
2023/05/06 18:55:43;;;;;;;0.10;0.10;;;20.30;99.90;23.60;101437.00;;;;5093803;28;20197;-69
2023/05/06 18:58:36;;;;;;;0.10;0.10;;;20.00;99.90;23.90;101413.00;;;;5066428;28;20292;-70
2023/05/06 19:01:40;;;;;;;0.10;0.10;;;19.80;99.90;24.40;101419.00;;;;5047950;28;20193;-70
2023/05/06 19:04:18;;;;;;;0.20;0.20;;;19.90;99.90;24.30;101418.00;;;;5074517;28;20701;-70
2023/05/06 19:07:13;;;;;;;0.20;0.20;;;20.10;99.90;24.20;101415.00;;;;5077016;28;20256;-70
2023/05/06 19:10:02;;;;;;;0.20;0.20;;;19.90;99.90;24.00;101420.00;;;;5058937;28;20186;-70
2023/05/06 19:12:51;;;;;;;0.17;0.17;;;19.80;99.90;24.00;101417.00;;;;5055480;28;20671;-70
2023/05/06 19:15:46;;;;;;;0.20;0.20;;;19.80;99.90;23.80;101350.00;;;;5083466;28;20186;-70
2023/05/06 19:18:35;;;;;;;0.20;0.20;;;19.70;99.90;24.50;101389.00;;;;5069035;28;20201;-70
2023/05/06 19:21:24;;;;;;;0.20;0.20;;;19.90;99.90;24.20;101408.00;;;;5075088;28;20220;-70
2023/05/06 19:24:15;;;;;;;0.10;0.10;;;20.00;99.90;24.10;101415.00;;;;5008037;28;20203;-70
2023/05/06 19:26:49;;;;;;;0.20;0.20;;;19.90;99.90;24.40;101387.00;;;;5065552;28;20244;-70
2023/05/06 19:29:27;;;;;;;0.20;0.20;;;19.90;99.90;24.30;101418.00;;;;5074196;28;20263;-69
2023/05/06 19:32:17;;;;;;;0.20;0.20;;;19.90;99.90;24.40;101426.00;;;;5075524;28;20224;-70
2023/05/06 19:35:06;;;;;;;0.20;0.20;;;19.90;99.90;24.00;101432.00;;;;5091589;28;20189;-69
2023/05/06 19:37:52;;;;;;;0.20;0.20;;;19.80;99.90;24.10;101411.00;;;;5017366;28;20218;-69
2023/05/06 19:40:24;;;;;;;0.10;0.10;;;19.70;99.90;24.70;101409.00;;;;5088024;28;20228;-70